createdAt,value
2018-03-25T00:00:54.281Z,38.17
2018-03-25T00:03:22.900Z,44.47
2018-03-25T00:05:50.795Z,39.00
2018-03-25T00:08:18.681Z,39.80
2018-03-25T00:10:46.619Z,37.43
2018-03-25T00:13:14.486Z,33.57
2018-03-25T00:15:42.616Z,41.57
2018-03-25T00:18:10.506Z,41.60
2018-03-25T00:20:38.622Z,43.17
2018-03-25T00:23:06.419Z,37.80
2018-03-25T00:25:34.467Z,39.30
2018-03-25T00:28:02.248Z,39.57
2018-03-25T00:30:31.039Z,41.50
2018-03-25T00:32:58.983Z,38.50
2018-03-25T00:35:26.887Z,42.23
2018-03-25T00:37:54.577Z,42.17
2018-03-25T00:40:23.198Z,37.23
2018-03-25T00:42:51.181Z,37.37
2018-03-25T00:45:19.165Z,43.20
2018-03-25T00:47:47.963Z,37.73
2018-03-25T00:50:15.779Z,37.57
2018-03-25T00:52:44.514Z,42.03
2018-03-25T00:55:13.191Z,38.33
2018-03-25T00:57:41.064Z,37.23
2018-03-25T01:00:09.541Z,41.80
2018-03-25T01:02:38.101Z,36.47
2018-03-25T01:05:06.671Z,40.60
2018-03-25T01:07:34.505Z,38.30
2018-03-25T01:10:02.260Z,38.03
2018-03-25T01:12:31.088Z,39.50
2018-03-25T01:14:58.957Z,36.60
2018-03-25T01:17:27.579Z,40.57
2018-03-25T01:19:55.377Z,34.80
2018-03-25T01:22:23.261Z,35.03
2018-03-25T01:24:51.785Z,38.73
2018-03-25T01:27:19.631Z,35.53
2018-03-25T01:29:47.555Z,40.87
2018-03-25T01:32:15.500Z,37.37
2018-03-25T01:34:43.318Z,37.07
2018-03-25T01:37:11.070Z,37.10
2018-03-25T01:39:38.675Z,32.73
2018-03-25T01:42:07.122Z,38.23
2018-03-25T01:44:34.919Z,34.50
2018-03-25T01:47:02.762Z,37.73
2018-03-25T01:49:30.653Z,34.27
2018-03-25T01:51:58.520Z,39.00
2018-03-25T01:54:26.474Z,37.90
2018-03-25T01:56:54.340Z,39.53
2018-03-25T01:59:22.239Z,41.13
2018-03-25T02:01:50.108Z,39.70
2018-03-25T02:04:18.012Z,39.43
2018-03-25T02:06:45.915Z,37.03
2018-03-25T02:09:14.676Z,39.20
2018-03-25T02:11:43.299Z,41.37
2018-03-25T02:14:11.493Z,38.40
2018-03-25T02:16:43.122Z,38.40
2018-03-25T02:19:10.989Z,40.97
2018-03-25T02:21:39.610Z,39.83
2018-03-25T02:24:07.556Z,40.13
2018-03-25T02:26:35.455Z,41.67
2018-03-25T02:29:04.148Z,37.40
2018-03-25T02:31:32.076Z,40.43
2018-03-25T02:33:59.865Z,43.20
2018-03-25T02:36:27.836Z,40.87
2018-03-25T02:38:55.741Z,44.03
2018-03-25T02:41:24.478Z,37.67
2018-03-25T02:43:52.377Z,44.43
2018-03-25T02:46:20.299Z,43.50
2018-03-25T02:48:48.122Z,41.57
2018-03-25T02:51:15.937Z,41.03
2018-03-25T02:53:43.897Z,42.80
2018-03-25T02:56:11.586Z,45.67
2018-03-25T02:58:39.504Z,44.73
2018-03-25T03:01:07.367Z,42.87
2018-03-25T03:03:35.186Z,41.87
2018-03-25T03:06:03.705Z,42.37
2018-03-25T03:08:31.644Z,43.33
2018-03-25T03:10:59.398Z,46.37
2018-03-25T03:13:27.810Z,43.10
2018-03-25T03:15:55.581Z,42.77
2018-03-25T03:18:23.205Z,44.77
2018-03-25T03:20:51.239Z,48.37
2018-03-25T03:23:19.148Z,43.77
2018-03-25T03:25:47.010Z,44.27
2018-03-25T03:28:14.916Z,44.60
2018-03-25T03:30:42.719Z,43.00
2018-03-25T03:33:10.419Z,44.30
2018-03-25T03:35:38.970Z,47.77
2018-03-25T03:38:07.443Z,43.80
2018-03-25T03:40:36.157Z,48.80
2018-03-25T03:43:04.774Z,47.07
2018-03-25T03:45:32.782Z,46.53
2018-03-25T03:48:00.649Z,46.13
2018-03-25T03:50:28.476Z,43.37
2018-03-25T03:52:56.183Z,49.10
2018-03-25T03:55:25.261Z,46.03
2018-03-25T03:57:53.159Z,51.30
2018-03-25T04:00:20.957Z,50.07
2018-03-25T04:02:48.679Z,47.33
2018-03-25T04:05:16.655Z,51.63
2018-03-25T04:07:44.544Z,50.67
2018-03-25T04:10:12.442Z,48.80
2018-03-25T04:12:40.431Z,50.20
2018-03-25T04:15:08.194Z,49.10
2018-03-25T04:17:36.102Z,49.27
2018-03-25T04:20:04.169Z,53.07
2018-03-25T04:22:31.948Z,52.30
2018-03-25T04:25:00.836Z,52.23
2018-03-25T04:27:29.327Z,46.53
2018-03-25T04:29:57.368Z,56.00
2018-03-25T04:32:25.251Z,50.90
2018-03-25T04:34:53.185Z,49.10
2018-03-25T04:37:21.036Z,54.67
2018-03-25T04:39:48.907Z,57.30
2018-03-25T04:42:16.703Z,49.67
2018-03-25T04:44:44.800Z,52.87
2018-03-25T04:47:13.262Z,53.73
2018-03-25T04:49:41.579Z,56.57
2018-03-25T04:52:09.651Z,53.97
2018-03-25T04:54:38.174Z,54.73
2018-03-25T04:57:05.977Z,54.93
2018-03-25T04:59:33.874Z,53.07
2018-03-25T05:02:02.438Z,53.33
2018-03-25T05:04:30.290Z,54.37
2018-03-25T05:06:58.298Z,55.23
2018-03-25T05:09:26.208Z,61.30
2018-03-25T05:11:54.331Z,60.63
2018-03-25T05:14:22.207Z,54.37
2018-03-25T05:16:50.154Z,53.53
2018-03-25T05:19:18.782Z,56.87
2018-03-25T05:21:50.976Z,56.77
2018-03-25T05:24:18.981Z,60.80
2018-03-25T05:26:47.539Z,56.73
2018-03-25T05:29:16.068Z,63.03
2018-03-25T05:31:44.246Z,60.47
2018-03-25T05:34:12.090Z,60.07
2018-03-25T05:36:40.003Z,59.60
2018-03-25T05:39:09.453Z,58.60
2018-03-25T05:41:37.317Z,61.50
2018-03-25T05:44:06.937Z,56.47
2018-03-25T05:46:34.767Z,64.40
2018-03-25T05:49:02.492Z,64.20
2018-03-25T05:51:30.445Z,61.70
2018-03-25T05:53:59.255Z,59.70
2018-03-25T05:56:27.231Z,60.33
2018-03-25T05:58:55.213Z,64.57
2018-03-25T06:01:23.619Z,65.43
2018-03-25T06:03:52.264Z,63.70
2018-03-25T06:06:20.209Z,63.23
2018-03-25T06:08:48.149Z,66.40
2018-03-25T06:11:16.165Z,57.53
2018-03-25T06:13:44.118Z,66.63
2018-03-25T06:16:12.037Z,61.53
2018-03-25T06:18:39.988Z,64.30
2018-03-25T06:21:08.637Z,70.13
2018-03-25T06:23:36.628Z,61.27
2018-03-25T06:26:04.456Z,68.07
2018-03-25T06:28:33.783Z,63.57
2018-03-25T06:31:01.783Z,66.17
2018-03-25T06:33:29.558Z,66.50
2018-03-25T06:35:57.313Z,67.53
2018-03-25T06:38:25.187Z,63.60
2018-03-25T06:40:53.162Z,67.63
2018-03-25T06:43:21.083Z,67.70
2018-03-25T06:45:49.073Z,63.17
2018-03-25T06:48:17.358Z,62.17
2018-03-25T06:50:46.198Z,65.37
2018-03-25T06:53:14.103Z,60.20
2018-03-25T06:55:42.060Z,61.30
2018-03-25T06:58:10.181Z,62.23
2018-03-25T07:00:38.099Z,56.93
2018-03-25T07:03:05.969Z,55.07
2018-03-25T07:05:33.999Z,58.33
2018-03-25T07:08:01.972Z,56.20
2018-03-25T07:10:30.665Z,54.00
2018-03-25T07:12:59.386Z,56.33
2018-03-25T07:15:27.265Z,54.23
2018-03-25T07:17:55.216Z,56.57
2018-03-25T07:20:23.275Z,54.87
2018-03-25T07:22:51.215Z,53.07
2018-03-25T07:25:20.469Z,51.83
2018-03-25T07:27:48.543Z,48.60
2018-03-25T07:30:18.570Z,55.10
2018-03-25T07:32:46.568Z,49.60
2018-03-25T07:35:14.410Z,51.77
2018-03-25T07:37:44.119Z,50.50
2018-03-25T07:40:12.877Z,51.53
2018-03-25T07:42:40.873Z,52.77
2018-03-25T07:45:08.808Z,44.97
2018-03-25T07:47:36.806Z,51.27
2018-03-25T07:50:06.164Z,48.77
2018-03-25T07:52:33.834Z,46.63
2018-03-25T07:55:02.253Z,48.93
2018-03-25T07:57:30.137Z,43.80
2018-03-25T07:59:57.883Z,41.77
2018-03-25T08:02:25.771Z,46.40
2018-03-25T08:04:53.554Z,42.20
2018-03-25T08:07:22.465Z,46.27
2018-03-25T08:09:50.946Z,43.67
2018-03-25T08:12:18.737Z,42.90
2018-03-25T08:14:47.248Z,40.40
2018-03-25T08:17:16.014Z,41.00
2018-03-25T08:19:43.921Z,38.23
2018-03-25T08:22:11.856Z,39.80
2018-03-25T08:24:40.637Z,35.27
2018-03-25T08:27:08.503Z,35.47
2018-03-25T08:29:36.215Z,39.47
2018-03-25T08:32:03.937Z,38.17
2018-03-25T08:34:31.664Z,33.27
2018-03-25T08:36:59.434Z,36.43
2018-03-25T08:39:27.277Z,32.00
2018-03-25T08:41:56.117Z,32.83
2018-03-25T08:44:24.108Z,34.93
2018-03-25T08:46:52.671Z,35.17
2018-03-25T08:49:20.570Z,32.90
2018-03-25T08:51:48.498Z,31.30
2018-03-25T08:54:16.481Z,32.53
2018-03-25T08:56:44.497Z,28.47
2018-03-25T08:59:12.507Z,27.80
2018-03-25T09:01:41.117Z,28.30
2018-03-25T09:04:09.765Z,26.93
2018-03-25T09:06:37.590Z,29.70
2018-03-25T09:09:05.577Z,25.57
2018-03-25T09:11:33.702Z,26.83
2018-03-25T09:14:01.531Z,27.70
2018-03-25T09:16:29.521Z,25.57
2018-03-25T09:18:57.377Z,25.53
2018-03-25T09:21:25.065Z,25.07
2018-03-25T09:23:52.891Z,24.23
2018-03-25T09:26:21.398Z,21.27
2018-03-25T09:28:49.156Z,21.70
2018-03-25T09:31:17.757Z,21.43
2018-03-25T09:33:45.450Z,20.30
2018-03-25T09:36:13.297Z,21.67
2018-03-25T09:38:41.075Z,21.40
2018-03-25T09:41:09.461Z,20.13
2018-03-25T09:43:38.061Z,17.30
2018-03-25T09:46:06.250Z,16.27
2018-03-25T09:48:34.907Z,15.53
2018-03-25T09:51:03.625Z,18.43
2018-03-25T09:53:32.303Z,18.27
2018-03-25T09:56:00.939Z,18.00
2018-03-25T09:58:28.988Z,19.60
2018-03-25T10:01:02.670Z,18.40
2018-03-25T10:03:31.451Z,24.33
2018-03-25T10:05:59.377Z,22.83
2018-03-25T10:08:27.414Z,20.87
2018-03-25T10:10:55.376Z,20.93
2018-03-25T10:13:23.093Z,19.03
2018-03-25T10:15:51.171Z,30.20
2018-03-25T10:18:19.106Z,19.57
2018-03-25T10:20:47.773Z,17.27
2018-03-25T10:23:15.826Z,21.83
2018-03-25T10:25:44.609Z,21.33
2018-03-25T10:28:12.553Z,20.97
2018-03-25T10:30:42.482Z,19.27
2018-03-25T10:33:10.503Z,18.53
2018-03-25T10:35:38.552Z,20.27
2018-03-25T10:38:06.543Z,24.13
2018-03-25T10:40:34.628Z,17.47
2018-03-25T10:43:02.662Z,18.10
2018-03-25T10:45:30.575Z,16.67
2018-03-25T10:47:58.573Z,15.20
2018-03-25T10:50:26.603Z,16.33
2018-03-25T10:52:54.504Z,16.37
2018-03-25T10:55:23.378Z,17.00
2018-03-25T10:57:51.253Z,16.87
2018-03-25T11:00:19.466Z,19.90
2018-03-25T11:02:47.456Z,30.13
2018-03-25T11:05:15.447Z,18.70
2018-03-25T11:07:43.296Z,19.07
2018-03-25T11:10:11.225Z,17.73
2018-03-25T11:12:38.981Z,17.07
2018-03-25T11:15:06.854Z,18.60
2018-03-25T11:17:35.616Z,17.17
2018-03-25T11:20:03.885Z,15.47
2018-03-25T11:22:32.036Z,15.97
2018-03-25T11:25:00.026Z,16.63
2018-03-25T11:27:27.998Z,21.67
2018-03-25T11:29:56.004Z,18.33
2018-03-25T11:32:24.096Z,15.40
2018-03-25T11:34:52.180Z,18.33
2018-03-25T11:37:20.094Z,16.77
2018-03-25T11:39:48.133Z,14.77
2018-03-25T11:42:16.200Z,16.70
2018-03-25T11:44:44.268Z,17.73
2018-03-25T11:47:12.257Z,16.07
2018-03-25T11:49:40.344Z,14.57
2018-03-25T11:52:08.313Z,14.40
2018-03-25T11:54:37.095Z,15.73
2018-03-25T11:57:05.164Z,14.90
2018-03-25T11:59:33.132Z,13.80
2018-03-25T12:02:01.031Z,14.13
2018-03-25T12:04:29.067Z,14.93
2018-03-25T12:06:57.106Z,14.70
2018-03-25T12:09:25.157Z,13.80
2018-03-25T12:11:52.861Z,15.17
2018-03-25T12:14:20.841Z,14.83
2018-03-25T12:16:48.723Z,16.70
2018-03-25T12:19:16.700Z,16.77
2018-03-25T12:21:44.677Z,19.70
2018-03-25T12:24:12.672Z,16.70
2018-03-25T12:26:40.665Z,15.63
2018-03-25T12:29:08.615Z,18.30
2018-03-25T12:31:37.673Z,15.70
2018-03-25T12:34:06.576Z,14.77
2018-03-25T12:36:35.143Z,17.40
2018-03-25T12:39:03.193Z,15.90
2018-03-25T12:41:31.021Z,15.03
2018-03-25T12:43:58.920Z,29.97
2018-03-25T12:46:26.868Z,70.77
2018-03-25T12:48:55.213Z,23.43
2018-03-25T12:51:22.982Z,16.37
2018-03-25T12:53:51.150Z,17.13
2018-03-25T12:56:19.223Z,17.47
2018-03-25T12:58:47.325Z,16.77
2018-03-25T13:01:15.240Z,18.43
2018-03-25T13:03:43.356Z,16.37
2018-03-25T13:06:11.304Z,17.93
2018-03-25T13:08:39.942Z,21.13
2018-03-25T13:11:08.431Z,17.50
2018-03-25T13:13:36.254Z,18.80
2018-03-25T13:16:04.369Z,18.10
2018-03-25T13:18:32.388Z,17.07
2018-03-25T13:21:00.556Z,19.67
2018-03-25T13:23:29.513Z,16.83
2018-03-25T13:25:58.186Z,18.77
2018-03-25T13:28:25.935Z,18.23
2018-03-25T13:30:53.975Z,17.27
2018-03-25T13:33:21.754Z,17.17
2018-03-25T13:35:49.538Z,16.97
2018-03-25T13:38:17.368Z,19.00
2018-03-25T13:40:45.636Z,19.73
2018-03-25T13:43:13.472Z,19.90
2018-03-25T13:45:41.483Z,19.67
2018-03-25T13:48:09.478Z,17.97
2018-03-25T13:50:37.524Z,20.23
2018-03-25T13:53:05.518Z,18.27
2018-03-25T13:55:33.324Z,17.90
2018-03-25T13:58:01.064Z,19.33
2018-03-25T14:00:28.846Z,19.23
2018-03-25T14:02:57.490Z,20.00
2018-03-25T14:05:25.812Z,19.60
2018-03-25T14:07:53.505Z,17.70
2018-03-25T14:10:21.172Z,17.33
2018-03-25T14:12:49.698Z,20.70
2018-03-25T14:15:17.437Z,20.00
2018-03-25T14:17:45.262Z,21.53
2018-03-25T14:20:13.294Z,20.10
2018-03-25T14:22:41.423Z,21.43
2018-03-25T14:25:09.426Z,18.67
2018-03-25T14:27:37.234Z,20.03
2018-03-25T14:30:05.845Z,19.10
2018-03-25T14:32:33.792Z,18.07
2018-03-25T14:35:02.546Z,20.27
2018-03-25T14:37:30.508Z,22.20
2018-03-25T14:39:58.454Z,18.97
2018-03-25T14:42:27.232Z,18.23
2018-03-25T14:44:55.109Z,18.10
2018-03-25T14:47:22.948Z,19.83
2018-03-25T14:49:51.474Z,20.57
2018-03-25T14:52:19.290Z,19.17
2018-03-25T14:54:47.218Z,19.57
2018-03-25T14:57:15.178Z,20.83
2018-03-25T14:59:43.085Z,19.67
2018-03-25T15:02:10.970Z,23.13
2018-03-25T15:04:38.880Z,19.87
2018-03-25T15:07:06.893Z,20.87
2018-03-25T15:09:34.828Z,22.17
2018-03-25T15:12:02.820Z,17.67
2018-03-25T15:14:31.910Z,20.93
2018-03-25T15:16:59.763Z,18.47
2018-03-25T15:19:27.473Z,21.33
2018-03-25T15:21:55.218Z,19.30
2018-03-25T15:24:23.125Z,21.20
2018-03-25T15:26:50.922Z,20.67
2018-03-25T15:29:18.792Z,22.17
2018-03-25T15:31:46.854Z,17.77
2018-03-25T15:34:14.927Z,17.80
2018-03-25T15:36:42.900Z,21.17
2018-03-25T15:39:10.790Z,19.93
2018-03-25T15:41:38.856Z,26.40
2018-03-25T15:44:06.716Z,23.43
2018-03-25T15:46:34.664Z,36.60
2018-03-25T15:49:02.339Z,24.97
2018-03-25T15:51:30.155Z,22.03
2018-03-25T15:53:58.010Z,22.90
2018-03-25T15:56:26.033Z,20.53
2018-03-25T15:58:54.586Z,23.00
2018-03-25T16:01:22.482Z,22.63
2018-03-25T16:03:50.415Z,25.93
2018-03-25T16:06:18.276Z,25.20
2018-03-25T16:08:46.038Z,24.80
2018-03-25T16:11:13.906Z,21.60
2018-03-25T16:13:43.088Z,26.07
2018-03-25T16:16:11.128Z,22.33
2018-03-25T16:18:39.192Z,22.77
2018-03-25T16:21:07.901Z,24.80
2018-03-25T16:23:36.360Z,25.10
2018-03-25T16:26:05.932Z,25.90
2018-03-25T16:28:34.589Z,25.10
2018-03-25T16:31:02.980Z,25.17
2018-03-25T16:33:31.011Z,24.10
2018-03-25T16:36:00.008Z,21.93
2018-03-25T16:38:27.886Z,22.60
2018-03-25T16:40:55.568Z,22.57
2018-03-25T16:43:23.539Z,25.10
2018-03-25T16:45:52.029Z,24.67
2018-03-25T16:48:19.753Z,24.80
2018-03-25T16:50:47.635Z,24.47
2018-03-25T16:53:15.619Z,23.13
2018-03-25T16:55:43.629Z,26.63
2018-03-25T16:58:12.275Z,24.03
2018-03-25T17:00:41.076Z,25.77
2018-03-25T17:03:08.805Z,27.23
2018-03-25T17:05:36.581Z,26.37
2018-03-25T17:08:05.142Z,26.60
2018-03-25T17:10:33.648Z,25.33
2018-03-25T17:13:02.136Z,27.47
2018-03-25T17:15:30.636Z,26.17
2018-03-25T17:17:58.363Z,27.57
2018-03-25T17:20:26.017Z,28.00
2018-03-25T17:22:54.454Z,26.87
2018-03-25T17:25:23.081Z,29.93
2018-03-25T17:27:50.802Z,27.40
2018-03-25T17:30:18.512Z,32.37
2018-03-25T17:32:46.142Z,31.70
2018-03-25T17:35:15.108Z,30.60
2018-03-25T17:37:43.596Z,33.73
2018-03-25T17:40:11.988Z,32.53
2018-03-25T17:42:39.730Z,49.37
2018-03-25T17:45:07.398Z,41.23
2018-03-25T17:47:35.996Z,36.67
2018-03-25T17:50:04.781Z,36.63
2018-03-25T17:52:32.455Z,48.63
2018-03-25T17:55:01.410Z,37.20
2018-03-25T17:57:29.138Z,30.13
2018-03-25T17:59:56.817Z,33.57
2018-03-25T18:02:25.370Z,34.70
2018-03-25T18:04:54.152Z,34.20
2018-03-25T18:07:21.984Z,35.77
2018-03-25T18:09:49.696Z,36.40
2018-03-25T18:12:17.583Z,34.33
2018-03-25T18:14:45.250Z,36.13
2018-03-25T18:17:33.464Z,37.00
2018-03-25T18:19:40.746Z,36.50
2018-03-25T18:22:08.635Z,40.80
2018-03-25T18:24:36.488Z,52.47
2018-03-25T18:27:04.353Z,58.53
2018-03-25T18:29:32.403Z,52.03
2018-03-25T18:32:00.064Z,61.83
2018-03-25T18:34:28.260Z,60.43
2018-03-25T18:36:56.161Z,61.77
2018-03-25T18:39:24.072Z,43.97
2018-03-25T18:41:51.824Z,43.03
2018-03-25T18:44:19.646Z,67.77
2018-03-25T18:46:47.546Z,57.80
2018-03-25T18:49:15.364Z,51.30
2018-03-25T18:51:43.212Z,50.47
2018-03-25T18:54:10.986Z,43.83
2018-03-25T18:56:38.640Z,36.90
2018-03-25T18:59:07.379Z,73.30
2018-03-25T19:01:35.251Z,55.33
2018-03-25T19:04:03.230Z,64.33
2018-03-25T19:06:31.962Z,48.57
2018-03-25T19:08:59.788Z,43.40
2018-03-25T19:11:28.437Z,40.53
2018-03-25T19:13:56.382Z,35.53
2018-03-25T19:16:25.267Z,35.70
2018-03-25T19:18:53.028Z,34.97
2018-03-25T19:21:20.886Z,35.53
2018-03-25T19:23:49.607Z,41.57
2018-03-25T19:26:17.414Z,63.87
2018-03-25T19:28:45.189Z,52.47
2018-03-25T19:31:13.799Z,38.67
2018-03-25T19:33:41.745Z,40.17
2018-03-25T19:36:10.086Z,35.60
2018-03-25T19:38:40.524Z,58.00
2018-03-25T19:41:08.524Z,55.73
2018-03-25T19:43:36.649Z,32.77
2018-03-25T19:46:04.554Z,36.30
2018-03-25T19:48:33.268Z,34.27
2018-03-25T19:51:01.339Z,33.73
2018-03-25T19:53:29.181Z,31.40
2018-03-25T19:55:57.874Z,32.20
2018-03-25T19:58:25.820Z,32.20
2018-03-25T20:00:53.674Z,32.93
2018-03-25T20:03:21.602Z,33.97
2018-03-25T20:05:49.486Z,36.03
2018-03-25T20:08:17.488Z,38.73
2018-03-25T20:10:45.465Z,34.17
2018-03-25T20:13:13.210Z,34.43
2018-03-25T20:15:40.881Z,37.70
2018-03-25T20:18:08.776Z,34.30
2018-03-25T20:20:36.435Z,37.17
2018-03-25T20:23:04.460Z,33.97
2018-03-25T20:25:33.026Z,39.67
2018-03-25T20:28:00.824Z,32.67
2018-03-25T20:30:28.543Z,33.57
2018-03-25T20:32:56.384Z,36.13
2018-03-25T20:35:24.940Z,36.30
2018-03-25T20:37:52.840Z,33.90
2018-03-25T20:40:21.834Z,37.47
2018-03-25T20:42:49.734Z,40.57
2018-03-25T20:45:17.429Z,36.17
2018-03-25T20:47:45.274Z,37.40
2018-03-25T20:50:13.102Z,40.70
2018-03-25T20:52:41.152Z,34.40
2018-03-25T20:55:09.189Z,37.00
2018-03-25T20:57:36.934Z,37.13
2018-03-25T21:00:08.610Z,41.30
2018-03-25T21:02:36.493Z,36.77
2018-03-25T21:05:04.389Z,39.07
2018-03-25T21:07:32.300Z,36.90
2018-03-25T21:10:00.316Z,36.77
2018-03-25T21:12:28.299Z,37.10
2018-03-25T21:14:56.293Z,35.57
2018-03-25T21:17:24.239Z,35.73
2018-03-25T21:19:52.222Z,37.60
2018-03-25T21:22:19.972Z,39.03
2018-03-25T21:24:47.938Z,35.27
2018-03-25T21:27:15.882Z,38.10
2018-03-25T21:29:43.825Z,36.87
2018-03-25T21:32:11.618Z,36.43
2018-03-25T21:34:39.482Z,35.63
2018-03-25T21:37:07.234Z,37.40
2018-03-25T21:39:35.056Z,37.17
2018-03-25T21:42:02.856Z,34.30
2018-03-25T21:44:30.724Z,38.13
2018-03-25T21:46:59.746Z,37.47
2018-03-25T21:49:27.490Z,36.87
2018-03-25T21:51:55.221Z,37.50
2018-03-25T21:54:23.000Z,40.57
2018-03-25T21:56:53.652Z,39.87
2018-03-25T21:59:21.442Z,39.97
2018-03-25T22:01:49.314Z,40.17
2018-03-25T22:04:18.905Z,40.77
2018-03-25T22:06:46.707Z,39.33
2018-03-25T22:09:14.630Z,44.30
2018-03-25T22:11:42.463Z,38.00
2018-03-25T22:14:10.434Z,38.37
2018-03-25T22:16:38.138Z,34.37
2018-03-25T22:19:05.729Z,38.30
2018-03-25T22:21:33.591Z,33.23
2018-03-25T22:24:01.342Z,35.57
2018-03-25T22:26:29.834Z,33.37
2018-03-25T22:28:57.552Z,36.50
2018-03-25T22:31:25.414Z,34.47
2018-03-25T22:33:53.081Z,32.77
2018-03-25T22:36:20.884Z,34.73
2018-03-25T22:38:48.594Z,33.93
2018-03-25T22:41:16.520Z,35.33
2018-03-25T22:43:44.465Z,34.80
2018-03-25T22:46:13.235Z,32.37
2018-03-25T22:48:41.081Z,34.17
2018-03-25T22:51:09.089Z,33.73
2018-03-25T22:53:36.711Z,34.90
2018-03-25T22:56:04.550Z,33.50
2018-03-25T22:58:32.499Z,35.13
2018-03-25T23:01:00.256Z,35.60
2018-03-25T23:03:27.934Z,38.37
2018-03-25T23:05:56.512Z,34.57
2018-03-25T23:08:24.240Z,37.80
2018-03-25T23:10:52.016Z,32.90
2018-03-25T23:13:19.854Z,35.87
2018-03-25T23:15:47.647Z,37.20
2018-03-25T23:18:15.421Z,32.83
2018-03-25T23:20:43.392Z,33.63
2018-03-25T23:23:11.955Z,36.73
2018-03-25T23:25:39.853Z,34.87
2018-03-25T23:28:07.781Z,35.30
2018-03-25T23:30:36.237Z,35.37
2018-03-25T23:33:04.135Z,37.53
2018-03-25T23:35:32.634Z,38.03
2018-03-25T23:38:00.431Z,35.77
2018-03-25T23:40:28.170Z,40.73
2018-03-25T23:42:56.721Z,37.43
2018-03-25T23:45:25.221Z,36.90
2018-03-25T23:47:53.096Z,38.67
2018-03-25T23:50:22.042Z,37.20
2018-03-25T23:52:50.040Z,36.67
2018-03-25T23:55:17.682Z,39.13
2018-03-25T23:57:45.369Z,35.37
